sensor_id;sensor_type;location;lat;lon;timestamp;temperature;humidity
49222;DHT22;35047;37.588;-122.048;2023-04-12T00:00:06;21.80;51.50
49222;DHT22;35047;37.588;-122.048;2023-04-12T00:02:37;21.80;51.90
49222;DHT22;35047;37.588;-122.048;2023-04-12T00:05:04;21.80;51.20
49222;DHT22;35047;37.588;-122.048;2023-04-12T00:07:31;21.70;51.90
49222;DHT22;35047;37.588;-122.048;2023-04-12T00:09:57;21.60;52.00
49222;DHT22;35047;37.588;-122.048;2023-04-12T00:12:25;21.40;51.60
49222;DHT22;35047;37.588;-122.048;2023-04-12T00:14:51;21.30;51.90
49222;DHT22;35047;37.588;-122.048;2023-04-12T00:17:18;21.20;52.10
49222;DHT22;35047;37.588;-122.048;2023-04-12T00:19:45;21.20;52.20
49222;DHT22;35047;37.588;-122.048;2023-04-12T00:22:13;21.10;52.90
49222;DHT22;35047;37.588;-122.048;2023-04-12T00:24:41;21.10;53.70
49222;DHT22;35047;37.588;-122.048;2023-04-12T00:27:08;21.20;53.90
49222;DHT22;35047;37.588;-122.048;2023-04-12T00:29:35;21.30;53.70
49222;DHT22;35047;37.588;-122.048;2023-04-12T00:32:02;21.40;53.60
49222;DHT22;35047;37.588;-122.048;2023-04-12T00:34:30;21.40;53.30
49222;DHT22;35047;37.588;-122.048;2023-04-12T00:36:56;21.40;53.20
49222;DHT22;35047;37.588;-122.048;2023-04-12T00:39:23;21.40;53.40
49222;DHT22;35047;37.588;-122.048;2023-04-12T00:41:49;21.20;53.40
49222;DHT22;35047;37.588;-122.048;2023-04-12T00:44:16;21.20;54.00
49222;DHT22;35047;37.588;-122.048;2023-04-12T00:46:44;21.10;53.50
49222;DHT22;35047;37.588;-122.048;2023-04-12T00:49:11;21.00;54.50
49222;DHT22;35047;37.588;-122.048;2023-04-12T00:51:38;21.00;55.30
49222;DHT22;35047;37.588;-122.048;2023-04-12T00:54:05;21.10;54.80
49222;DHT22;35047;37.588;-122.048;2023-04-12T00:56:33;21.20;54.10
49222;DHT22;35047;37.588;-122.048;2023-04-12T00:58:59;21.20;54.20
49222;DHT22;35047;37.588;-122.048;2023-04-12T01:01:28;21.10;53.80
49222;DHT22;35047;37.588;-122.048;2023-04-12T01:03:56;21.00;54.60
49222;DHT22;35047;37.588;-122.048;2023-04-12T01:15:16;20.80;54.40
49222;DHT22;35047;37.588;-122.048;2023-04-12T01:18:06;20.90;55.30
49222;DHT22;35047;37.588;-122.048;2023-04-12T01:20:42;20.90;56.00
49222;DHT22;35047;37.588;-122.048;2023-04-12T01:23:42;20.90;55.80
49222;DHT22;35047;37.588;-122.048;2023-04-12T01:26:19;20.90;55.60
49222;DHT22;35047;37.588;-122.048;2023-04-12T01:29:00;20.80;54.90
49222;DHT22;35047;37.588;-122.048;2023-04-12T01:31:28;20.70;54.70
49222;DHT22;35047;37.588;-122.048;2023-04-12T01:33:57;20.70;56.00
49222;DHT22;35047;37.588;-122.048;2023-04-12T01:36:26;20.60;56.40
49222;DHT22;35047;37.588;-122.048;2023-04-12T01:38:54;20.50;56.00
49222;DHT22;35047;37.588;-122.048;2023-04-12T01:41:21;20.30;56.20
49222;DHT22;35047;37.588;-122.048;2023-04-12T01:43:48;20.30;56.70
49222;DHT22;35047;37.588;-122.048;2023-04-12T01:46:17;20.20;56.30
49222;DHT22;35047;37.588;-122.048;2023-04-12T01:48:48;20.10;57.00
49222;DHT22;35047;37.588;-122.048;2023-04-12T01:51:41;20.10;58.10
49222;DHT22;35047;37.588;-122.048;2023-04-12T01:54:23;20.00;58.00
49222;DHT22;35047;37.588;-122.048;2023-04-12T01:56:58;19.90;58.00
49222;DHT22;35047;37.588;-122.048;2023-04-12T01:59:39;19.70;57.40
49222;DHT22;35047;37.588;-122.048;2023-04-12T02:02:07;19.60;58.20
49222;DHT22;35047;37.588;-122.048;2023-04-12T02:04:35;19.50;58.90
49222;DHT22;35047;37.588;-122.048;2023-04-12T02:07:02;19.40;59.50
49222;DHT22;35047;37.588;-122.048;2023-04-12T02:09:29;19.40;60.00
49222;DHT22;35047;37.588;-122.048;2023-04-12T02:11:56;19.40;59.90
49222;DHT22;35047;37.588;-122.048;2023-04-12T02:14:22;19.30;59.00
49222;DHT22;35047;37.588;-122.048;2023-04-12T02:16:49;19.10;59.60
49222;DHT22;35047;37.588;-122.048;2023-04-12T02:19:19;19.10;60.00
49222;DHT22;35047;37.588;-122.048;2023-04-12T02:21:46;18.90;60.20
49222;DHT22;35047;37.588;-122.048;2023-04-12T02:24:13;18.90;60.60
49222;DHT22;35047;37.588;-122.048;2023-04-12T02:26:40;18.90;60.90
49222;DHT22;35047;37.588;-122.048;2023-04-12T02:29:07;18.90;61.20
49222;DHT22;35047;37.588;-122.048;2023-04-12T02:31:35;18.80;60.70
49222;DHT22;35047;37.588;-122.048;2023-04-12T02:34:04;18.80;60.60
49222;DHT22;35047;37.588;-122.048;2023-04-12T02:36:32;18.70;60.70
49222;DHT22;35047;37.588;-122.048;2023-04-12T02:39:00;18.50;61.30
49222;DHT22;35047;37.588;-122.048;2023-04-12T02:41:26;18.40;61.10
49222;DHT22;35047;37.588;-122.048;2023-04-12T02:43:53;18.30;61.70
49222;DHT22;35047;37.588;-122.048;2023-04-12T02:46:23;18.20;61.60
49222;DHT22;35047;37.588;-122.048;2023-04-12T02:48:50;18.10;62.00
49222;DHT22;35047;37.588;-122.048;2023-04-12T02:51:17;18.00;62.30
49222;DHT22;35047;37.588;-122.048;2023-04-12T02:53:43;17.90;62.00
49222;DHT22;35047;37.588;-122.048;2023-04-12T02:56:11;17.80;61.60
49222;DHT22;35047;37.588;-122.048;2023-04-12T02:58:37;17.80;62.30
49222;DHT22;35047;37.588;-122.048;2023-04-12T03:01:04;17.60;62.70
49222;DHT22;35047;37.588;-122.048;2023-04-12T03:03:33;17.60;63.00
49222;DHT22;35047;37.588;-122.048;2023-04-12T03:06:00;17.50;63.60
49222;DHT22;35047;37.588;-122.048;2023-04-12T03:08:27;17.50;64.20
49222;DHT22;35047;37.588;-122.048;2023-04-12T03:10:53;17.50;62.50
49222;DHT22;35047;37.588;-122.048;2023-04-12T03:13:20;17.40;62.70
49222;DHT22;35047;37.588;-122.048;2023-04-12T03:15:47;17.30;63.80
49222;DHT22;35047;37.588;-122.048;2023-04-12T03:18:14;17.20;64.20
49222;DHT22;35047;37.588;-122.048;2023-04-12T03:20:42;17.20;64.80
49222;DHT22;35047;37.588;-122.048;2023-04-12T03:23:08;17.20;65.00
49222;DHT22;35047;37.588;-122.048;2023-04-12T03:25:35;17.20;64.70
49222;DHT22;35047;37.588;-122.048;2023-04-12T03:28:05;17.10;64.10
49222;DHT22;35047;37.588;-122.048;2023-04-12T03:30:32;17.10;64.20
49222;DHT22;35047;37.588;-122.048;2023-04-12T03:32:58;17.00;64.00
49222;DHT22;35047;37.588;-122.048;2023-04-12T03:35:25;17.10;64.80
49222;DHT22;35047;37.588;-122.048;2023-04-12T03:37:52;17.20;64.70
49222;DHT22;35047;37.588;-122.048;2023-04-12T03:40:18;17.30;64.20
49222;DHT22;35047;37.588;-122.048;2023-04-12T03:42:45;17.30;64.10
49222;DHT22;35047;37.588;-122.048;2023-04-12T03:45:13;17.40;65.00
49222;DHT22;35047;37.588;-122.048;2023-04-12T03:47:39;17.50;63.40
49222;DHT22;35047;37.588;-122.048;2023-04-12T03:50:06;17.30;63.10
49222;DHT22;35047;37.588;-122.048;2023-04-12T03:52:33;17.30;63.40
49222;DHT22;35047;37.588;-122.048;2023-04-12T03:54:59;17.20;63.70
49222;DHT22;35047;37.588;-122.048;2023-04-12T03:57:26;17.20;63.90
49222;DHT22;35047;37.588;-122.048;2023-04-12T03:59:52;17.10;63.90
49222;DHT22;35047;37.588;-122.048;2023-04-12T04:02:19;17.10;64.20
49222;DHT22;35047;37.588;-122.048;2023-04-12T04:04:45;17.00;64.10
49222;DHT22;35047;37.588;-122.048;2023-04-12T04:07:12;17.00;64.70
49222;DHT22;35047;37.588;-122.048;2023-04-12T04:09:39;17.00;64.90
49222;DHT22;35047;37.588;-122.048;2023-04-12T04:12:05;17.00;64.70
49222;DHT22;35047;37.588;-122.048;2023-04-12T04:14:32;16.90;64.30
49222;DHT22;35047;37.588;-122.048;2023-04-12T04:17:01;16.70;65.30
49222;DHT22;35047;37.588;-122.048;2023-04-12T04:19:28;16.70;65.20
49222;DHT22;35047;37.588;-122.048;2023-04-12T04:21:54;16.60;65.60
49222;DHT22;35047;37.588;-122.048;2023-04-12T04:24:22;16.60;65.70
49222;DHT22;35047;37.588;-122.048;2023-04-12T04:26:50;16.60;66.20
49222;DHT22;35047;37.588;-122.048;2023-04-12T04:29:19;16.60;66.20
49222;DHT22;35047;37.588;-122.048;2023-04-12T04:31:46;16.60;66.30
49222;DHT22;35047;37.588;-122.048;2023-04-12T04:34:13;16.40;65.80
49222;DHT22;35047;37.588;-122.048;2023-04-12T04:36:40;16.30;66.10
49222;DHT22;35047;37.588;-122.048;2023-04-12T04:39:08;16.40;67.00
49222;DHT22;35047;37.588;-122.048;2023-04-12T04:41:34;16.20;66.70
49222;DHT22;35047;37.588;-122.048;2023-04-12T04:44:05;16.10;67.20
49222;DHT22;35047;37.588;-122.048;2023-04-12T04:46:35;16.00;67.60
49222;DHT22;35047;37.588;-122.048;2023-04-12T04:49:03;16.00;68.60
49222;DHT22;35047;37.588;-122.048;2023-04-12T04:51:30;16.10;68.30
49222;DHT22;35047;37.588;-122.048;2023-04-12T04:53:56;16.00;68.60
49222;DHT22;35047;37.588;-122.048;2023-04-12T04:56:23;15.90;68.30
49222;DHT22;35047;37.588;-122.048;2023-04-12T04:58:50;16.00;68.30
49222;DHT22;35047;37.588;-122.048;2023-04-12T05:01:19;15.90;68.60
49222;DHT22;35047;37.588;-122.048;2023-04-12T05:03:45;15.80;68.60
49222;DHT22;35047;37.588;-122.048;2023-04-12T05:06:14;15.80;69.10
49222;DHT22;35047;37.588;-122.048;2023-04-12T05:08:41;15.70;69.10
49222;DHT22;35047;37.588;-122.048;2023-04-12T05:11:07;15.80;69.50
49222;DHT22;35047;37.588;-122.048;2023-04-12T05:13:34;15.70;68.80
49222;DHT22;35047;37.588;-122.048;2023-04-12T05:16:04;15.70;69.20
49222;DHT22;35047;37.588;-122.048;2023-04-12T05:18:31;15.70;69.00
49222;DHT22;35047;37.588;-122.048;2023-04-12T05:21:03;15.40;69.60
49222;DHT22;35047;37.588;-122.048;2023-04-12T05:23:50;15.70;69.20
49222;DHT22;35047;37.588;-122.048;2023-04-12T05:26:17;15.70;69.00
49222;DHT22;35047;37.588;-122.048;2023-04-12T05:28:43;15.60;69.10
49222;DHT22;35047;37.588;-122.048;2023-04-12T05:31:10;15.80;69.10
49222;DHT22;35047;37.588;-122.048;2023-04-12T05:33:37;16.00;68.80
49222;DHT22;35047;37.588;-122.048;2023-04-12T05:36:04;16.40;67.50
49222;DHT22;35047;37.588;-122.048;2023-04-12T05:38:31;16.60;66.70
49222;DHT22;35047;37.588;-122.048;2023-04-12T05:40:57;16.70;66.40
49222;DHT22;35047;37.588;-122.048;2023-04-12T05:43:23;16.80;66.00
49222;DHT22;35047;37.588;-122.048;2023-04-12T05:45:50;16.60;65.80
49222;DHT22;35047;37.588;-122.048;2023-04-12T05:48:16;16.60;65.80
49222;DHT22;35047;37.588;-122.048;2023-04-12T05:50:50;16.40;66.10
49222;DHT22;35047;37.588;-122.048;2023-04-12T05:53:17;15.80;66.50
49222;DHT22;35047;37.588;-122.048;2023-04-12T05:55:44;15.50;68.00
49222;DHT22;35047;37.588;-122.048;2023-04-12T05:58:11;15.90;69.00
49222;DHT22;35047;37.588;-122.048;2023-04-12T06:00:38;16.00;69.30
49222;DHT22;35047;37.588;-122.048;2023-04-12T06:03:09;16.10;68.40
49222;DHT22;35047;37.588;-122.048;2023-04-12T06:05:36;16.00;68.60
49222;DHT22;35047;37.588;-122.048;2023-04-12T06:08:03;15.60;67.60
49222;DHT22;35047;37.588;-122.048;2023-04-12T06:10:30;15.80;69.80
49222;DHT22;35047;37.588;-122.048;2023-04-12T06:12:57;15.70;68.50
49222;DHT22;35047;37.588;-122.048;2023-04-12T06:15:24;15.70;69.90
49222;DHT22;35047;37.588;-122.048;2023-04-12T06:17:51;15.90;69.70
49222;DHT22;35047;37.588;-122.048;2023-04-12T06:20:17;15.90;68.30
49222;DHT22;35047;37.588;-122.048;2023-04-12T06:22:44;15.90;70.00
49222;DHT22;35047;37.588;-122.048;2023-04-12T06:25:11;15.80;68.20
49222;DHT22;35047;37.588;-122.048;2023-04-12T06:27:38;16.00;68.70
49222;DHT22;35047;37.588;-122.048;2023-04-12T06:30:04;15.90;67.80
49222;DHT22;35047;37.588;-122.048;2023-04-12T06:32:31;15.90;67.80
49222;DHT22;35047;37.588;-122.048;2023-04-12T06:34:57;15.50;68.40
49222;DHT22;35047;37.588;-122.048;2023-04-12T06:37:24;15.40;70.40
49222;DHT22;35047;37.588;-122.048;2023-04-12T06:39:51;15.40;70.40
49222;DHT22;35047;37.588;-122.048;2023-04-12T06:42:18;15.50;70.20
49222;DHT22;35047;37.588;-122.048;2023-04-12T06:44:44;15.30;69.00
49222;DHT22;35047;37.588;-122.048;2023-04-12T06:47:11;15.50;70.90
49222;DHT22;35047;37.588;-122.048;2023-04-12T06:49:38;15.30;69.50
49222;DHT22;35047;37.588;-122.048;2023-04-12T06:52:04;15.00;70.30
49222;DHT22;35047;37.588;-122.048;2023-04-12T06:54:31;15.40;71.70
49222;DHT22;35047;37.588;-122.048;2023-04-12T06:56:58;15.60;70.60
49222;DHT22;35047;37.588;-122.048;2023-04-12T06:59:27;15.70;69.10
49222;DHT22;35047;37.588;-122.048;2023-04-12T07:01:53;15.30;69.20
49222;DHT22;35047;37.588;-122.048;2023-04-12T07:04:20;15.50;71.30
49222;DHT22;35047;37.588;-122.048;2023-04-12T07:06:46;15.60;70.30
49222;DHT22;35047;37.588;-122.048;2023-04-12T07:09:13;15.70;70.50
49222;DHT22;35047;37.588;-122.048;2023-04-12T07:11:40;15.70;69.50
49222;DHT22;35047;37.588;-122.048;2023-04-12T07:14:07;15.50;69.40
49222;DHT22;35047;37.588;-122.048;2023-04-12T07:16:33;15.70;69.10
49222;DHT22;35047;37.588;-122.048;2023-04-12T07:19:00;15.50;69.30
49222;DHT22;35047;37.588;-122.048;2023-04-12T07:21:26;15.50;70.70
49222;DHT22;35047;37.588;-122.048;2023-04-12T07:23:54;15.70;70.30
49222;DHT22;35047;37.588;-122.048;2023-04-12T07:26:20;15.60;70.00
49222;DHT22;35047;37.588;-122.048;2023-04-12T07:28:47;15.60;70.60
49222;DHT22;35047;37.588;-122.048;2023-04-12T07:31:13;15.50;69.40
49222;DHT22;35047;37.588;-122.048;2023-04-12T07:33:40;15.50;69.00
49222;DHT22;35047;37.588;-122.048;2023-04-12T07:36:07;15.60;70.50
49222;DHT22;35047;37.588;-122.048;2023-04-12T07:38:33;15.60;68.60
49222;DHT22;35047;37.588;-122.048;2023-04-12T07:41:00;15.70;69.20
49222;DHT22;35047;37.588;-122.048;2023-04-12T07:43:27;15.80;69.50
49222;DHT22;35047;37.588;-122.048;2023-04-12T07:45:56;15.80;69.50
49222;DHT22;35047;37.588;-122.048;2023-04-12T07:48:23;15.80;69.30
49222;DHT22;35047;37.588;-122.048;2023-04-12T07:50:50;15.80;69.00
49222;DHT22;35047;37.588;-122.048;2023-04-12T07:53:26;15.70;69.40
49222;DHT22;35047;37.588;-122.048;2023-04-12T07:55:54;15.70;69.40
49222;DHT22;35047;37.588;-122.048;2023-04-12T07:58:21;15.70;69.40
49222;DHT22;35047;37.588;-122.048;2023-04-12T08:00:48;15.70;69.40
49222;DHT22;35047;37.588;-122.048;2023-04-12T08:03:16;15.80;68.60
49222;DHT22;35047;37.588;-122.048;2023-04-12T08:05:43;15.70;68.70
49222;DHT22;35047;37.588;-122.048;2023-04-12T08:08:10;15.70;69.30
49222;DHT22;35047;37.588;-122.048;2023-04-12T08:10:38;15.60;69.00
49222;DHT22;35047;37.588;-122.048;2023-04-12T08:13:05;15.50;69.30
49222;DHT22;35047;37.588;-122.048;2023-04-12T08:15:32;15.50;69.30
49222;DHT22;35047;37.588;-122.048;2023-04-12T08:17:59;15.50;69.40
49222;DHT22;35047;37.588;-122.048;2023-04-12T08:20:25;15.50;69.30
49222;DHT22;35047;37.588;-122.048;2023-04-12T08:22:52;15.50;69.40
49222;DHT22;35047;37.588;-122.048;2023-04-12T08:25:19;15.50;68.80
49222;DHT22;35047;37.588;-122.048;2023-04-12T08:27:48;15.50;69.00
49222;DHT22;35047;37.588;-122.048;2023-04-12T08:30:14;15.60;69.50
49222;DHT22;35047;37.588;-122.048;2023-04-12T08:32:41;15.60;68.80
49222;DHT22;35047;37.588;-122.048;2023-04-12T08:35:09;15.60;69.10
49222;DHT22;35047;37.588;-122.048;2023-04-12T08:37:35;15.60;69.50
49222;DHT22;35047;37.588;-122.048;2023-04-12T08:40:04;15.50;68.50
49222;DHT22;35047;37.588;-122.048;2023-04-12T08:42:35;15.60;68.90
49222;DHT22;35047;37.588;-122.048;2023-04-12T08:45:06;15.60;69.30
49222;DHT22;35047;37.588;-122.048;2023-04-12T08:47:37;15.50;69.50
49222;DHT22;35047;37.588;-122.048;2023-04-12T08:50:05;15.60;69.50
49222;DHT22;35047;37.588;-122.048;2023-04-12T08:52:35;15.60;69.70
49222;DHT22;35047;37.588;-122.048;2023-04-12T08:55:05;15.70;69.40
49222;DHT22;35047;37.588;-122.048;2023-04-12T08:57:34;15.60;69.50
49222;DHT22;35047;37.588;-122.048;2023-04-12T09:00:01;15.60;69.90
49222;DHT22;35047;37.588;-122.048;2023-04-12T09:02:28;15.60;69.90
49222;DHT22;35047;37.588;-122.048;2023-04-12T09:04:55;15.60;69.80
49222;DHT22;35047;37.588;-122.048;2023-04-12T09:07:22;15.70;69.80
49222;DHT22;35047;37.588;-122.048;2023-04-12T09:09:49;15.70;69.80
49222;DHT22;35047;37.588;-122.048;2023-04-12T09:12:16;15.70;69.90
49222;DHT22;35047;37.588;-122.048;2023-04-12T09:14:45;15.70;69.90
49222;DHT22;35047;37.588;-122.048;2023-04-12T09:17:22;15.50;70.50
49222;DHT22;35047;37.588;-122.048;2023-04-12T09:19:49;15.40;70.00
49222;DHT22;35047;37.588;-122.048;2023-04-12T09:22:16;15.40;70.30
49222;DHT22;35047;37.588;-122.048;2023-04-12T09:24:50;15.30;70.50
49222;DHT22;35047;37.588;-122.048;2023-04-12T09:27:18;15.20;70.70
49222;DHT22;35047;37.588;-122.048;2023-04-12T09:29:47;15.20;71.40
49222;DHT22;35047;37.588;-122.048;2023-04-12T09:32:24;15.20;71.70
49222;DHT22;35047;37.588;-122.048;2023-04-12T09:34:55;15.10;71.70
49222;DHT22;35047;37.588;-122.048;2023-04-12T09:37:30;15.10;72.00
49222;DHT22;35047;37.588;-122.048;2023-04-12T09:40:02;15.10;72.10
49222;DHT22;35047;37.588;-122.048;2023-04-12T09:42:30;15.10;72.30
49222;DHT22;35047;37.588;-122.048;2023-04-12T09:44:57;15.00;71.80
49222;DHT22;35047;37.588;-122.048;2023-04-12T09:47:44;15.00;71.80
49222;DHT22;35047;37.588;-122.048;2023-04-12T09:50:23;14.90;72.20
49222;DHT22;35047;37.588;-122.048;2023-04-12T09:52:50;14.90;71.80
49222;DHT22;35047;37.588;-122.048;2023-04-12T09:55:17;14.90;72.80
49222;DHT22;35047;37.588;-122.048;2023-04-12T09:57:44;14.90;72.60
49222;DHT22;35047;37.588;-122.048;2023-04-12T10:00:11;14.90;72.30
49222;DHT22;35047;37.588;-122.048;2023-04-12T10:02:47;14.90;72.30
49222;DHT22;35047;37.588;-122.048;2023-04-12T10:05:16;14.90;72.40
49222;DHT22;35047;37.588;-122.048;2023-04-12T10:07:44;14.90;71.80
49222;DHT22;35047;37.588;-122.048;2023-04-12T10:10:15;14.80;71.90
49222;DHT22;35047;37.588;-122.048;2023-04-12T10:12:44;14.90;72.50
49222;DHT22;35047;37.588;-122.048;2023-04-12T10:15:12;14.80;72.70
49222;DHT22;35047;37.588;-122.048;2023-04-12T10:17:50;14.80;73.00
49222;DHT22;35047;37.588;-122.048;2023-04-12T10:20:19;14.90;73.10
49222;DHT22;35047;37.588;-122.048;2023-04-12T10:22:47;14.90;73.10
49222;DHT22;35047;37.588;-122.048;2023-04-12T10:25:16;15.00;72.80
49222;DHT22;35047;37.588;-122.048;2023-04-12T10:27:44;15.00;73.10
49222;DHT22;35047;37.588;-122.048;2023-04-12T10:30:30;15.00;72.90
49222;DHT22;35047;37.588;-122.048;2023-04-12T10:35:56;15.10;72.80
49222;DHT22;35047;37.588;-122.048;2023-04-12T10:38:25;15.00;72.80
49222;DHT22;35047;37.588;-122.048;2023-04-12T10:41:12;15.10;73.20
49222;DHT22;35047;37.588;-122.048;2023-04-12T10:43:46;15.00;73.10
49222;DHT22;35047;37.588;-122.048;2023-04-12T10:49:08;15.00;73.10
49222;DHT22;35047;37.588;-122.048;2023-04-12T10:51:34;15.10;72.50
49222;DHT22;35047;37.588;-122.048;2023-04-12T10:59:05;15.00;71.80
49222;DHT22;35047;37.588;-122.048;2023-04-12T11:01:32;15.00;72.00
49222;DHT22;35047;37.588;-122.048;2023-04-12T11:09:22;14.80;72.10
49222;DHT22;35047;37.588;-122.048;2023-04-12T11:12:12;14.80;72.10
49222;DHT22;35047;37.588;-122.048;2023-04-12T11:14:45;14.80;72.20
49222;DHT22;35047;37.588;-122.048;2023-04-12T11:19:51;14.80;72.50
49222;DHT22;35047;37.588;-122.048;2023-04-12T11:22:20;14.80;72.70
49222;DHT22;35047;37.588;-122.048;2023-04-12T11:24:52;14.80;72.50
49222;DHT22;35047;37.588;-122.048;2023-04-12T11:27:21;14.80;72.80
49222;DHT22;35047;37.588;-122.048;2023-04-12T11:29:52;14.80;72.60
49222;DHT22;35047;37.588;-122.048;2023-04-12T11:32:25;14.80;72.50
49222;DHT22;35047;37.588;-122.048;2023-04-12T11:34:53;14.90;72.40
49222;DHT22;35047;37.588;-122.048;2023-04-12T11:37:21;14.80;72.00
49222;DHT22;35047;37.588;-122.048;2023-04-12T11:39:51;14.80;72.60
49222;DHT22;35047;37.588;-122.048;2023-04-12T11:42:25;14.80;72.50
49222;DHT22;35047;37.588;-122.048;2023-04-12T11:44:53;14.80;72.50
49222;DHT22;35047;37.588;-122.048;2023-04-12T11:47:21;14.80;72.60
49222;DHT22;35047;37.588;-122.048;2023-04-12T11:52:16;14.90;72.20
49222;DHT22;35047;37.588;-122.048;2023-04-12T11:54:44;14.90;72.10
49222;DHT22;35047;37.588;-122.048;2023-04-12T11:57:13;14.90;71.40
49222;DHT22;35047;37.588;-122.048;2023-04-12T11:59:42;14.90;71.10
49222;DHT22;35047;37.588;-122.048;2023-04-12T12:02:09;14.90;70.50
49222;DHT22;35047;37.588;-122.048;2023-04-12T12:04:37;14.90;71.00
49222;DHT22;35047;37.588;-122.048;2023-04-12T12:07:04;14.80;71.00
49222;DHT22;35047;37.588;-122.048;2023-04-12T12:09:31;14.90;71.00
49222;DHT22;35047;37.588;-122.048;2023-04-12T12:11:58;14.80;70.60
49222;DHT22;35047;37.588;-122.048;2023-04-12T12:14:26;14.80;70.50
49222;DHT22;35047;37.588;-122.048;2023-04-12T12:16:57;14.70;70.70
49222;DHT22;35047;37.588;-122.048;2023-04-12T12:19:34;14.70;70.70
49222;DHT22;35047;37.588;-122.048;2023-04-12T12:22:20;14.70;71.00
49222;DHT22;35047;37.588;-122.048;2023-04-12T12:24:54;14.70;70.70
49222;DHT22;35047;37.588;-122.048;2023-04-12T12:27:36;14.60;70.20
49222;DHT22;35047;37.588;-122.048;2023-04-12T12:30:05;14.60;70.70
49222;DHT22;35047;37.588;-122.048;2023-04-12T12:32:37;14.60;70.70
49222;DHT22;35047;37.588;-122.048;2023-04-12T12:35:12;14.60;70.50
49222;DHT22;35047;37.588;-122.048;2023-04-12T12:37:53;14.60;70.20
49222;DHT22;35047;37.588;-122.048;2023-04-12T12:40:30;14.50;70.00
49222;DHT22;35047;37.588;-122.048;2023-04-12T12:42:59;14.50;70.00
49222;DHT22;35047;37.588;-122.048;2023-04-12T12:45:27;14.50;69.40
49222;DHT22;35047;37.588;-122.048;2023-04-12T12:47:58;14.50;69.30
49222;DHT22;35047;37.588;-122.048;2023-04-12T12:50:26;14.50;69.60
49222;DHT22;35047;37.588;-122.048;2023-04-12T12:52:54;14.50;69.90
49222;DHT22;35047;37.588;-122.048;2023-04-12T12:55:23;14.50;69.80
49222;DHT22;35047;37.588;-122.048;2023-04-12T12:57:52;14.40;70.20
49222;DHT22;35047;37.588;-122.048;2023-04-12T13:00:20;14.50;69.70
49222;DHT22;35047;37.588;-122.048;2023-04-12T13:02:48;14.50;69.90
49222;DHT22;35047;37.588;-122.048;2023-04-12T13:05:15;14.60;69.60
49222;DHT22;35047;37.588;-122.048;2023-04-12T13:07:42;14.50;69.40
49222;DHT22;35047;37.588;-122.048;2023-04-12T13:10:09;14.60;69.40
49222;DHT22;35047;37.588;-122.048;2023-04-12T13:12:36;14.50;68.90
49222;DHT22;35047;37.588;-122.048;2023-04-12T13:15:03;14.50;69.20
49222;DHT22;35047;37.588;-122.048;2023-04-12T13:17:30;14.60;68.30
49222;DHT22;35047;37.588;-122.048;2023-04-12T13:19:57;14.50;68.50
49222;DHT22;35047;37.588;-122.048;2023-04-12T13:22:23;14.50;68.70
49222;DHT22;35047;37.588;-122.048;2023-04-12T13:24:50;14.50;68.60
49222;DHT22;35047;37.588;-122.048;2023-04-12T13:27:18;14.60;69.00
49222;DHT22;35047;37.588;-122.048;2023-04-12T13:29:44;14.60;68.70
49222;DHT22;35047;37.588;-122.048;2023-04-12T13:32:11;14.60;68.70
49222;DHT22;35047;37.588;-122.048;2023-04-12T13:34:38;14.60;68.70
49222;DHT22;35047;37.588;-122.048;2023-04-12T13:37:05;14.60;68.50
49222;DHT22;35047;37.588;-122.048;2023-04-12T13:39:32;14.60;68.50
49222;DHT22;35047;37.588;-122.048;2023-04-12T13:42:00;14.60;68.80
49222;DHT22;35047;37.588;-122.048;2023-04-12T13:44:27;14.60;68.80
49222;DHT22;35047;37.588;-122.048;2023-04-12T13:46:54;14.60;68.40
49222;DHT22;35047;37.588;-122.048;2023-04-12T13:49:21;14.60;67.60
49222;DHT22;35047;37.588;-122.048;2023-04-12T13:51:48;14.60;67.70
49222;DHT22;35047;37.588;-122.048;2023-04-12T13:54:14;14.60;68.00
49222;DHT22;35047;37.588;-122.048;2023-04-12T13:56:43;14.60;67.90
49222;DHT22;35047;37.588;-122.048;2023-04-12T13:59:09;14.60;67.40
49222;DHT22;35047;37.588;-122.048;2023-04-12T14:01:37;14.60;67.50
49222;DHT22;35047;37.588;-122.048;2023-04-12T14:04:03;14.50;67.30
49222;DHT22;35047;37.588;-122.048;2023-04-12T14:06:30;14.50;67.20
49222;DHT22;35047;37.588;-122.048;2023-04-12T14:08:57;14.60;67.30
49222;DHT22;35047;37.588;-122.048;2023-04-12T14:11:23;14.50;66.60
49222;DHT22;35047;37.588;-122.048;2023-04-12T14:13:50;14.50;67.00
49222;DHT22;35047;37.588;-122.048;2023-04-12T14:16:17;14.50;67.10
49222;DHT22;35047;37.588;-122.048;2023-04-12T14:18:44;14.60;67.30
49222;DHT22;35047;37.588;-122.048;2023-04-12T14:21:10;14.50;67.00
49222;DHT22;35047;37.588;-122.048;2023-04-12T14:23:37;14.50;67.30
49222;DHT22;35047;37.588;-122.048;2023-04-12T14:26:04;14.50;67.60
49222;DHT22;35047;37.588;-122.048;2023-04-12T14:28:30;14.60;67.00
49222;DHT22;35047;37.588;-122.048;2023-04-12T14:30:59;14.60;67.20
49222;DHT22;35047;37.588;-122.048;2023-04-12T14:33:26;14.50;66.60
49222;DHT22;35047;37.588;-122.048;2023-04-12T14:35:53;14.60;67.40
49222;DHT22;35047;37.588;-122.048;2023-04-12T14:38:19;14.50;66.80
49222;DHT22;35047;37.588;-122.048;2023-04-12T14:40:48;14.50;66.80
49222;DHT22;35047;37.588;-122.048;2023-04-12T14:43:14;14.50;66.80
49222;DHT22;35047;37.588;-122.048;2023-04-12T14:45:42;14.50;66.90
49222;DHT22;35047;37.588;-122.048;2023-04-12T14:48:08;14.50;66.90
49222;DHT22;35047;37.588;-122.048;2023-04-12T14:50:34;14.50;67.00
49222;DHT22;35047;37.588;-122.048;2023-04-12T14:53:01;14.50;67.00
49222;DHT22;35047;37.588;-122.048;2023-04-12T14:55:27;14.50;66.60
49222;DHT22;35047;37.588;-122.048;2023-04-12T14:57:54;14.50;67.00
49222;DHT22;35047;37.588;-122.048;2023-04-12T15:00:20;14.50;67.40
49222;DHT22;35047;37.588;-122.048;2023-04-12T15:02:48;14.60;67.40
49222;DHT22;35047;37.588;-122.048;2023-04-12T15:05:14;14.60;67.70
49222;DHT22;35047;37.588;-122.048;2023-04-12T15:07:41;14.70;67.00
49222;DHT22;35047;37.588;-122.048;2023-04-12T15:10:07;14.60;67.00
49222;DHT22;35047;37.588;-122.048;2023-04-12T15:12:34;14.70;67.20
49222;DHT22;35047;37.588;-122.048;2023-04-12T15:15:03;14.70;67.50
49222;DHT22;35047;37.588;-122.048;2023-04-12T15:17:30;14.70;67.90
49222;DHT22;35047;37.588;-122.048;2023-04-12T15:19:57;14.80;67.40
49222;DHT22;35047;37.588;-122.048;2023-04-12T15:22:23;14.80;67.70
49222;DHT22;35047;37.588;-122.048;2023-04-12T15:24:51;14.90;67.70